createdAt,value
2022-08-03T00:00:04.268Z,9.747373
2022-08-03T00:01:04.231Z,9.747362
2022-08-03T00:02:04.219Z,9.747287
2022-08-03T00:03:04.246Z,9.747390
2022-08-03T00:04:04.193Z,9.747418
2022-08-03T00:05:04.170Z,9.747417
2022-08-03T00:06:05.233Z,9.747434
2022-08-03T00:07:04.178Z,9.747414
2022-08-03T00:08:04.151Z,9.747321
2022-08-03T00:09:04.144Z,9.747321
2022-08-03T00:10:04.133Z,9.747336
2022-08-03T00:11:04.150Z,9.747351
2022-08-03T00:12:04.120Z,9.747376
2022-08-03T00:13:04.116Z,9.747421
2022-08-03T00:14:04.116Z,9.747411
2022-08-03T00:15:04.109Z,9.747403
2022-08-03T00:16:05.112Z,9.747356
2022-08-03T00:17:04.105Z,9.747417
2022-08-03T00:18:04.101Z,9.747383
2022-08-03T00:19:04.093Z,9.747390
2022-08-03T00:20:04.100Z,9.747415
2022-08-03T00:21:04.117Z,9.747382
2022-08-03T00:22:04.084Z,9.747411
2022-08-03T00:23:04.072Z,9.747435
2022-08-03T00:24:04.072Z,9.747477
2022-08-03T00:25:04.046Z,9.747508
2022-08-03T00:26:04.046Z,9.747425
2022-08-03T00:27:04.010Z,9.747393
2022-08-03T00:28:04.025Z,9.747272
2022-08-03T00:29:04.046Z,9.747345
2022-08-03T00:30:03.987Z,9.747491
2022-08-03T00:31:03.992Z,9.747476
2022-08-03T00:32:03.966Z,9.747431
2022-08-03T00:33:03.956Z,9.747385
2022-08-03T00:34:04.271Z,9.747339
2022-08-03T00:35:07.963Z,9.747371
2022-08-03T00:36:03.961Z,9.747479
2022-08-03T00:37:03.916Z,9.747375
2022-08-03T00:38:03.913Z,9.747464
2022-08-03T00:39:03.911Z,9.747396
2022-08-03T00:40:03.901Z,9.747400
2022-08-03T00:41:03.920Z,9.747453
2022-08-03T00:42:03.885Z,9.747416
2022-08-03T00:43:03.882Z,9.747475
2022-08-03T00:44:03.886Z,9.747444
2022-08-03T00:45:03.865Z,9.747403
2022-08-03T00:46:03.892Z,9.747406
2022-08-03T00:47:03.841Z,9.747456
2022-08-03T00:48:03.834Z,9.747423
2022-08-03T00:49:03.942Z,9.747457
2022-08-03T00:50:03.823Z,9.747419
2022-08-03T00:51:03.809Z,9.747426
2022-08-03T00:52:07.726Z,9.747465
2022-08-03T00:53:04.802Z,9.747462
2022-08-03T00:54:03.793Z,9.747430
2022-08-03T00:55:03.783Z,9.747389
2022-08-03T00:56:03.772Z,9.747448
2022-08-03T00:57:03.794Z,9.747472
2022-08-03T00:58:03.758Z,9.747462
2022-08-03T00:59:03.747Z,9.747519
2022-08-03T01:00:03.755Z,9.747484
2022-08-03T01:01:03.784Z,9.747457
2022-08-03T01:02:03.773Z,9.747471
2022-08-03T01:03:03.734Z,9.747517
2022-08-03T01:04:03.721Z,9.747494
2022-08-03T01:05:03.706Z,9.747529
2022-08-03T01:06:03.694Z,9.747485
2022-08-03T01:07:03.721Z,9.747552
2022-08-03T01:08:03.679Z,9.747516
2022-08-03T01:09:03.686Z,9.747545
2022-08-03T01:10:03.668Z,9.747555
2022-08-03T01:11:03.658Z,9.747500
2022-08-03T01:12:03.678Z,9.747490
2022-08-03T01:13:03.645Z,9.747432
2022-08-03T01:14:18.640Z,9.747513
2022-08-03T01:15:04.627Z,9.747485
2022-08-03T01:16:03.663Z,9.747550
2022-08-03T01:17:03.614Z,9.747524
2022-08-03T01:18:03.616Z,9.747539
2022-08-03T01:19:03.597Z,9.747567
2022-08-03T01:20:03.608Z,9.747507
2022-08-03T01:21:03.576Z,9.747495
2022-08-03T01:22:03.603Z,9.747610
2022-08-03T01:23:03.582Z,9.747674
2022-08-03T01:33:40.146Z,9.747338
2022-08-03T01:34:39.149Z,9.747842
2022-08-03T01:35:39.270Z,9.747521
2022-08-03T01:36:39.149Z,9.747733
2022-08-03T01:37:39.106Z,9.747541
2022-08-03T01:38:40.110Z,9.747572
2022-08-03T01:39:39.102Z,9.747527
2022-08-03T01:40:39.093Z,9.747772
2022-08-03T01:41:39.108Z,9.747602
2022-08-03T01:42:39.075Z,9.747543
2022-08-03T01:44:26.863Z,9.747469
2022-08-03T01:44:40.059Z,9.747647
2022-08-03T01:45:39.055Z,9.747606
2022-08-03T01:46:39.075Z,9.747252
2022-08-03T01:47:39.038Z,9.747111
2022-08-03T01:48:39.031Z,9.747543
2022-08-03T01:49:39.153Z,9.747498
2022-08-03T01:50:39.017Z,9.747671
2022-08-03T01:51:56.077Z,9.747705
2022-08-03T01:52:40.001Z,9.747712
2022-08-03T01:53:38.995Z,9.747643
2022-08-03T01:54:38.994Z,9.747515
2022-08-03T01:55:38.983Z,9.747445
2022-08-03T01:56:38.999Z,9.747168
2022-08-03T01:58:05.316Z,9.747340
2022-08-03T01:58:39.964Z,9.747486
2022-08-03T01:59:38.950Z,9.747458
2022-08-03T02:00:38.976Z,9.747268
2022-08-03T02:02:31.739Z,9.747431
2022-08-03T02:02:40.294Z,9.747415
2022-08-03T02:03:38.920Z,9.747432
2022-08-03T02:04:39.917Z,9.747499
2022-08-03T02:05:38.905Z,9.747314
2022-08-03T02:07:02.232Z,9.747345
2022-08-03T02:07:39.886Z,9.747148
2022-08-03T02:08:38.878Z,9.747158
2022-08-03T02:09:38.882Z,9.747264
2022-08-03T02:10:38.865Z,9.747262
2022-08-03T02:11:38.886Z,9.747266
2022-08-03T02:12:38.852Z,9.747192
2022-08-03T02:13:38.843Z,9.746908
2022-08-03T02:14:38.839Z,9.746841
2022-08-03T02:15:38.830Z,9.746974
2022-08-03T02:16:38.852Z,9.747207
2022-08-03T02:17:40.299Z,9.747542
2022-08-03T02:18:38.809Z,9.747486
2022-08-03T02:19:38.804Z,9.747483
2022-08-03T02:20:38.804Z,9.747517
2022-08-03T02:21:56.620Z,9.747258
2022-08-03T02:22:39.775Z,9.747253
2022-08-03T02:23:38.772Z,9.747266
2022-08-03T02:24:38.757Z,9.747494
2022-08-03T02:25:38.762Z,9.747203
2022-08-03T02:26:38.768Z,9.746597
2022-08-03T02:27:43.343Z,9.747153
2022-08-03T02:28:40.725Z,9.747277
2022-08-03T02:29:40.973Z,9.747446
2022-08-03T02:30:38.725Z,9.747404
2022-08-03T02:31:38.731Z,9.747416
2022-08-03T02:32:38.698Z,9.747426
2022-08-03T02:33:38.690Z,9.747370
2022-08-03T02:34:38.681Z,9.747400
2022-08-03T02:35:38.671Z,9.747483
2022-08-03T02:36:38.692Z,9.747586
2022-08-03T02:37:38.660Z,9.747475
2022-08-03T02:38:38.640Z,9.747476
2022-08-03T02:39:38.633Z,9.747446
2022-08-03T02:40:38.632Z,9.747540
2022-08-03T02:41:38.648Z,9.747422
2022-08-03T02:42:38.618Z,9.747420
2022-08-03T02:43:40.240Z,9.747229
2022-08-03T02:44:39.593Z,9.747336
2022-08-03T02:45:41.532Z,9.747348
2022-08-03T02:46:39.609Z,9.747380
2022-08-03T02:47:53.986Z,9.747469
2022-08-03T02:48:39.569Z,9.747492
2022-08-03T02:49:49.891Z,9.747538
2022-08-03T02:50:39.547Z,9.747190
2022-08-03T02:51:38.570Z,9.747023
2022-08-03T02:52:38.533Z,9.747026
2022-08-03T02:53:38.530Z,9.747509
2022-08-03T02:54:38.525Z,9.747449
2022-08-03T02:55:42.993Z,9.747742
2022-08-03T02:56:39.531Z,9.748063
2022-08-03T02:57:38.497Z,9.747849
2022-08-03T02:58:38.487Z,9.747721
2022-08-03T02:59:38.483Z,9.747677
2022-08-03T03:00:38.509Z,9.747610
2022-08-03T03:01:38.489Z,9.747562
2022-08-03T03:02:38.456Z,9.747566
2022-08-03T03:03:44.615Z,9.747584
2022-08-03T03:04:41.845Z,9.747610
2022-08-03T03:05:54.626Z,9.747581
2022-08-03T03:06:39.454Z,9.747438
2022-08-03T03:07:41.039Z,9.747583
2022-08-03T03:08:39.409Z,9.747507
2022-08-03T03:09:41.849Z,9.747401
2022-08-03T03:10:38.395Z,9.747517
2022-08-03T03:11:38.424Z,9.747358
2022-08-03T03:12:38.382Z,9.747566
2022-08-03T03:13:38.375Z,9.747431
2022-08-03T03:14:38.361Z,9.747506
2022-08-03T03:15:38.373Z,9.747548
2022-08-03T03:16:38.378Z,9.747383
2022-08-03T03:17:38.343Z,9.747440
2022-08-03T03:18:38.341Z,9.747507
2022-08-03T03:19:38.335Z,9.747470
2022-08-03T03:20:38.320Z,9.747525
2022-08-03T03:21:38.344Z,9.747445
2022-08-03T03:22:38.298Z,9.747459
2022-08-03T03:23:39.296Z,9.747466
2022-08-03T03:24:38.287Z,9.747215
2022-08-03T03:25:38.276Z,9.747122
2022-08-03T03:26:42.417Z,9.747358
2022-08-03T03:27:39.272Z,9.747450
2022-08-03T03:28:38.254Z,9.747540
2022-08-03T03:29:39.568Z,9.747494
2022-08-03T03:30:38.245Z,9.747416
2022-08-03T03:31:38.270Z,9.747412
2022-08-03T03:32:38.225Z,9.747596
2022-08-03T03:33:38.217Z,9.747437
2022-08-03T03:34:38.216Z,9.747423
2022-08-03T03:35:39.029Z,9.747340
2022-08-03T03:36:38.227Z,9.747362
2022-08-03T03:37:38.198Z,9.747416
2022-08-03T03:38:38.180Z,9.747400
2022-08-03T03:39:38.173Z,9.747395
2022-08-03T03:40:38.163Z,9.747334
2022-08-03T03:41:38.179Z,9.747305
2022-08-03T03:42:38.146Z,9.747347
2022-08-03T03:43:38.142Z,9.747391
2022-08-03T03:44:38.135Z,9.747334
2022-08-03T03:45:38.125Z,9.747383
2022-08-03T03:46:38.147Z,9.747424
2022-08-03T03:47:38.112Z,9.747176
2022-08-03T03:48:38.099Z,9.747264
2022-08-03T03:49:38.116Z,9.747165
2022-08-03T03:50:38.090Z,9.747288
2022-08-03T03:51:38.105Z,9.747371
2022-08-03T03:52:38.072Z,9.747368
2022-08-03T03:53:38.062Z,9.747290
2022-08-03T03:54:38.059Z,9.747439
2022-08-03T03:55:38.051Z,9.747238
2022-08-03T03:56:39.064Z,9.747342
2022-08-03T03:57:39.035Z,9.747398
2022-08-03T03:58:38.026Z,9.747403
2022-08-03T03:59:38.024Z,9.747353
2022-08-03T04:00:38.081Z,9.747321
2022-08-03T04:01:38.024Z,9.747393
2022-08-03T04:02:38.002Z,9.747437
2022-08-03T04:03:37.987Z,9.747441
2022-08-03T04:04:37.978Z,9.747387
2022-08-03T04:05:38.686Z,9.747302
2022-08-03T04:06:37.994Z,9.747285
2022-08-03T04:07:37.956Z,9.747280
2022-08-03T04:08:37.948Z,9.747279
2022-08-03T04:09:37.949Z,9.747318
2022-08-03T04:10:37.935Z,9.747252
2022-08-03T04:11:37.962Z,9.747388
2022-08-03T04:12:37.914Z,9.747403
2022-08-03T04:13:38.913Z,9.747304
2022-08-03T04:14:37.903Z,9.747278
2022-08-03T04:15:37.894Z,9.747327
2022-08-03T04:16:41.906Z,9.747324
2022-08-03T04:17:39.905Z,9.747334
2022-08-03T04:18:37.871Z,9.747585
2022-08-03T04:19:38.039Z,9.747603
2022-08-03T04:20:37.930Z,9.747489
2022-08-03T04:21:37.848Z,9.747291
2022-08-03T04:22:37.861Z,9.747194
2022-08-03T04:23:37.836Z,9.747293
2022-08-03T04:24:37.821Z,9.747282
2022-08-03T04:25:37.819Z,9.747334
2022-08-03T04:26:37.811Z,9.747308
2022-08-03T04:27:37.826Z,9.747372
2022-08-03T04:28:37.794Z,9.747461
2022-08-03T04:29:38.595Z,9.747539
2022-08-03T04:30:38.784Z,9.747487
2022-08-03T04:31:37.769Z,9.747403
2022-08-03T04:32:37.783Z,9.747362
2022-08-03T04:33:37.756Z,9.747288
2022-08-03T04:34:37.745Z,9.747405
2022-08-03T04:36:01.982Z,9.747357
2022-08-03T04:36:38.734Z,9.747355
2022-08-03T04:37:37.754Z,9.747378
2022-08-03T04:38:37.729Z,9.747436
2022-08-03T04:39:37.709Z,9.747518
2022-08-03T04:40:37.704Z,9.747467
2022-08-03T04:42:08.407Z,9.747450
2022-08-03T04:42:38.710Z,9.747425
2022-08-03T04:43:37.679Z,9.747377
2022-08-03T04:44:37.672Z,9.747313
2022-08-03T04:45:37.672Z,9.747335
2022-08-03T04:46:37.656Z,9.747385
2022-08-03T04:47:37.678Z,9.747350
2022-08-03T04:48:37.661Z,9.747419
2022-08-03T04:49:37.747Z,9.747545
2022-08-03T04:50:37.632Z,9.747400
2022-08-03T04:51:37.620Z,9.747373
2022-08-03T04:52:37.644Z,9.747392
2022-08-03T04:53:37.607Z,9.747432
2022-08-03T04:54:37.603Z,9.747422
2022-08-03T04:55:37.596Z,9.747445
2022-08-03T04:56:37.582Z,9.747439
2022-08-03T04:57:37.609Z,9.747373
2022-08-03T04:58:37.568Z,9.747345
2022-08-03T04:59:39.150Z,9.747341
2022-08-03T05:00:37.560Z,9.747317
2022-08-03T05:01:37.590Z,9.747417
2022-08-03T05:02:37.577Z,9.747482
2022-08-03T05:03:37.566Z,9.747552
2022-08-03T05:04:37.525Z,9.747460
2022-08-03T05:05:49.715Z,9.747475
2022-08-03T05:06:41.456Z,9.747455
2022-08-03T05:07:38.519Z,9.747456
2022-08-03T05:08:46.227Z,9.747459
2022-08-03T05:09:50.402Z,9.747376
2022-08-03T05:10:38.480Z,9.747437
2022-08-03T05:11:37.493Z,9.747408
2022-08-03T05:12:37.508Z,9.747409
2022-08-03T05:13:37.464Z,9.747325
2022-08-03T05:14:37.463Z,9.747324
2022-08-03T05:15:42.891Z,9.747435
2022-08-03T05:16:38.432Z,9.747503
2022-08-03T05:17:37.463Z,9.747416
2022-08-03T05:18:37.424Z,9.747437
2022-08-03T05:19:37.419Z,9.747485
2022-08-03T05:20:37.404Z,9.747421
2022-08-03T05:21:51.895Z,9.747420
2022-08-03T05:22:38.418Z,9.747242
2022-08-03T05:23:37.382Z,9.747400
2022-08-03T05:24:37.373Z,9.747496
2022-08-03T05:25:37.367Z,9.747363
2022-08-03T05:26:37.438Z,9.747356
2022-08-03T05:27:37.350Z,9.747402
2022-08-03T05:28:37.371Z,9.747418
2022-08-03T05:29:37.339Z,9.747326
2022-08-03T05:30:37.334Z,9.747253
2022-08-03T05:31:37.325Z,9.747329
2022-08-03T05:32:37.318Z,9.747380
2022-08-03T05:33:37.339Z,9.747336
2022-08-03T05:34:37.302Z,9.747385
2022-08-03T05:36:03.020Z,9.747362
2022-08-03T05:36:39.285Z,9.747378
2022-08-03T05:37:37.266Z,9.747307
2022-08-03T05:38:38.299Z,9.747480
2022-08-03T05:39:37.273Z,9.747379
2022-08-03T05:40:37.274Z,9.747360
2022-08-03T05:41:37.667Z,9.747421
2022-08-03T05:42:37.238Z,9.747375
2022-08-03T05:43:37.257Z,9.747350
2022-08-03T05:44:37.227Z,9.747344
2022-08-03T05:45:37.259Z,9.747423
2022-08-03T05:46:37.260Z,9.747428
2022-08-03T05:47:37.213Z,9.747464
2022-08-03T05:48:38.219Z,9.747506
2022-08-03T05:49:37.215Z,9.747484
2022-08-03T05:50:42.471Z,9.747415
2022-08-03T05:51:39.178Z,9.747514
2022-08-03T05:52:37.166Z,9.747416
2022-08-03T05:53:37.180Z,9.747221
2022-08-03T05:54:56.938Z,9.747380
2022-08-03T05:55:38.145Z,9.747415
2022-08-03T05:56:37.164Z,9.747339
2022-08-03T05:57:37.136Z,9.747272
2022-08-03T05:58:37.140Z,9.747362
2022-08-03T05:59:38.607Z,9.747375
2022-08-03T06:00:38.110Z,9.747424
2022-08-03T06:01:37.166Z,9.747364
2022-08-03T06:02:37.093Z,9.747451
2022-08-03T06:03:37.198Z,9.747460
2022-08-03T06:04:37.774Z,9.747377
2022-08-03T06:05:37.062Z,9.747440
2022-08-03T06:06:38.053Z,9.747474
2022-08-03T06:07:38.058Z,9.747325
2022-08-03T06:08:37.063Z,9.747312
2022-08-03T06:10:34.083Z,9.747411
2022-08-03T06:10:38.446Z,9.747391
2022-08-03T06:11:38.020Z,9.747454
2022-08-03T06:12:37.006Z,9.747527
2022-08-03T06:13:37.032Z,9.747499
2022-08-03T06:14:36.995Z,9.747587
2022-08-03T06:15:37.012Z,9.747543
2022-08-03T06:16:37.006Z,9.747544
2022-08-03T06:17:37.458Z,9.747404
2022-08-03T06:18:36.985Z,9.747522
2022-08-03T06:19:36.971Z,9.747636
2022-08-03T06:20:36.948Z,9.747632
2022-08-03T06:21:36.937Z,9.747647
2022-08-03T06:22:36.962Z,9.747511
2022-08-03T06:23:54.039Z,9.747609
2022-08-03T06:24:37.925Z,9.747586
2022-08-03T06:25:36.951Z,9.747635
2022-08-03T06:26:36.903Z,9.747610
2022-08-03T06:27:37.640Z,9.747618
2022-08-03T06:28:52.715Z,9.747585
2022-08-03T06:29:38.883Z,9.747540
2022-08-03T06:30:36.874Z,9.747510
2022-08-03T06:31:36.874Z,9.747545
2022-08-03T06:32:36.862Z,9.747491
2022-08-03T06:34:30.136Z,9.747517
2022-08-03T06:34:37.842Z,9.747502
2022-08-03T06:35:36.833Z,9.747583
2022-08-03T06:36:36.831Z,9.747590
2022-08-03T06:37:36.818Z,9.747652
2022-08-03T06:38:36.850Z,9.747643
2022-08-03T06:39:36.802Z,9.747673
2022-08-03T06:40:36.794Z,9.747424
2022-08-03T06:41:37.460Z,9.747499
2022-08-03T06:42:36.781Z,9.747416
2022-08-03T06:43:36.790Z,9.747447
2022-08-03T06:44:36.764Z,9.747362
2022-08-03T06:45:36.797Z,9.747418
2022-08-03T06:46:36.808Z,9.747488
2022-08-03T06:47:36.751Z,9.747442
2022-08-03T06:48:36.762Z,9.747458
2022-08-03T06:49:36.753Z,9.747437
2022-08-03T06:50:36.729Z,9.747420
2022-08-03T06:52:05.678Z,9.747483
2022-08-03T06:52:38.721Z,9.747428
2022-08-03T06:53:36.730Z,9.747461
2022-08-03T06:54:36.689Z,9.747419
2022-08-03T06:55:41.858Z,9.747459
2022-08-03T06:56:37.675Z,9.747373
2022-08-03T06:57:36.670Z,9.747298
2022-08-03T06:58:36.690Z,9.747339
2022-08-03T07:00:09.958Z,9.747433
2022-08-03T07:00:37.648Z,9.747388
2022-08-03T07:01:36.702Z,9.747471
2022-08-03T07:02:36.643Z,9.747425
2022-08-03T07:03:36.875Z,9.747285
2022-08-03T07:04:37.623Z,9.747435
2022-08-03T07:05:36.625Z,9.747403
2022-08-03T07:06:36.612Z,9.747275
2022-08-03T07:07:37.609Z,9.747457
2022-08-03T07:08:36.627Z,9.747396
2022-08-03T07:09:36.596Z,9.747334
2022-08-03T07:10:36.583Z,9.747430
2022-08-03T07:11:36.574Z,9.747326
2022-08-03T07:12:36.570Z,9.747240
2022-08-03T07:13:36.579Z,9.747382
2022-08-03T07:14:36.587Z,9.747394
2022-08-03T07:15:54.076Z,9.747594
2022-08-03T07:16:37.723Z,9.747714
2022-08-03T07:17:36.541Z,9.747428
2022-08-03T07:18:36.567Z,9.747355
2022-08-03T07:19:36.519Z,9.747407
2022-08-03T07:20:36.539Z,9.747413
2022-08-03T07:21:36.494Z,9.747313
2022-08-03T07:22:36.536Z,9.747347
2022-08-03T07:23:36.504Z,9.747323
2022-08-03T07:24:36.487Z,9.747389
2022-08-03T07:25:36.469Z,9.747397
2022-08-03T07:26:36.468Z,9.747324
2022-08-03T07:27:36.446Z,9.747314
2022-08-03T07:28:36.468Z,9.747331
2022-08-03T07:29:36.429Z,9.747311
2022-08-03T07:30:36.427Z,9.747284
2022-08-03T07:31:36.417Z,9.747290
2022-08-03T07:32:36.409Z,9.747339
2022-08-03T07:33:37.440Z,9.747355
2022-08-03T07:34:36.395Z,9.747326
2022-08-03T07:35:36.399Z,9.747356
2022-08-03T07:36:36.386Z,9.747331
2022-08-03T07:37:36.414Z,9.747310
2022-08-03T07:38:36.373Z,9.747315
2022-08-03T07:39:36.384Z,9.747371
2022-08-03T07:40:36.354Z,9.747360
2022-08-03T07:41:36.351Z,9.747392
2022-08-03T07:42:36.336Z,9.747314
2022-08-03T07:43:36.333Z,9.747311
2022-08-03T07:44:36.461Z,9.747368
2022-08-03T07:45:36.310Z,9.747373
2022-08-03T07:46:36.319Z,9.747490
2022-08-03T07:47:36.310Z,9.747420
2022-08-03T07:48:36.294Z,9.747375
2022-08-03T07:49:36.359Z,9.747363
2022-08-03T07:50:36.277Z,9.747322
2022-08-03T07:51:36.413Z,9.747331
2022-08-03T07:52:36.259Z,9.747330
2022-08-03T07:53:41.371Z,9.747386
2022-08-03T07:54:37.270Z,9.747343
2022-08-03T07:55:36.239Z,9.747314
2022-08-03T07:56:36.222Z,9.747355
2022-08-03T07:57:36.222Z,9.747410
2022-08-03T07:58:36.211Z,9.747410
2022-08-03T07:59:56.861Z,9.747404
2022-08-03T08:00:37.198Z,9.747417
2022-08-03T08:01:36.233Z,9.747380
2022-08-03T08:02:36.193Z,9.747391
2022-08-03T08:03:49.861Z,9.747396
2022-08-03T08:04:37.198Z,9.747453
2022-08-03T08:05:36.161Z,9.747399
2022-08-03T08:06:36.313Z,9.747446
2022-08-03T08:07:36.143Z,9.747424
2022-08-03T08:08:36.143Z,9.747379
2022-08-03T08:09:36.151Z,9.747401
2022-08-03T08:10:36.122Z,9.747398
2022-08-03T08:11:39.992Z,9.747350
2022-08-03T08:12:37.113Z,9.747296
2022-08-03T08:13:36.102Z,9.747371
2022-08-03T08:14:36.125Z,9.747352
2022-08-03T08:15:36.087Z,9.747420
2022-08-03T08:16:37.083Z,9.747519
2022-08-03T08:17:36.068Z,9.747449
2022-08-03T08:18:36.054Z,9.747298
2022-08-03T08:19:37.517Z,9.747272
2022-08-03T08:20:38.142Z,9.747336
2022-08-03T08:21:53.145Z,9.747391
2022-08-03T08:22:37.034Z,9.747322
2022-08-03T08:23:42.480Z,9.747133
2022-08-03T08:24:37.044Z,9.747235
2022-08-03T08:25:36.009Z,9.747294
2022-08-03T08:26:35.999Z,9.747490
2022-08-03T08:28:22.391Z,9.747271
2022-08-03T08:28:36.991Z,9.747318
2022-08-03T08:29:35.998Z,9.747426
2022-08-03T08:30:36.975Z,9.747267
2022-08-03T08:31:35.962Z,9.747338
2022-08-03T08:32:35.958Z,9.747419
2022-08-03T08:34:03.293Z,9.747210
2022-08-03T08:34:37.956Z,9.747272
2022-08-03T08:35:35.932Z,9.747209
2022-08-03T08:36:35.925Z,9.747254
2022-08-03T08:37:35.917Z,9.747388
2022-08-03T08:38:35.903Z,9.747339
2022-08-03T08:39:35.918Z,9.747381
2022-08-03T08:40:36.893Z,9.747405
2022-08-03T08:41:35.891Z,9.747384
2022-08-03T08:42:35.874Z,9.747330
2022-08-03T08:43:35.866Z,9.747393
2022-08-03T08:44:35.919Z,9.747392
2022-08-03T08:45:35.857Z,9.747407
2022-08-03T08:46:35.844Z,9.747329
2022-08-03T08:47:51.230Z,9.747300
2022-08-03T08:48:36.826Z,9.747316
2022-08-03T08:49:35.881Z,9.747323
2022-08-03T08:50:35.837Z,9.747371
2022-08-03T08:51:54.810Z,9.747393
2022-08-03T08:52:36.796Z,9.747318
2022-08-03T08:53:35.791Z,9.747227
2022-08-03T08:54:35.785Z,9.747264
2022-08-03T08:55:58.989Z,9.747292
2022-08-03T08:56:36.766Z,9.747221
2022-08-03T08:57:42.933Z,9.747312
2022-08-03T08:58:37.771Z,9.747291
2022-08-03T08:59:49.009Z,9.747321
2022-08-03T09:00:36.763Z,9.747414
2022-08-03T09:01:35.778Z,9.747442
2022-08-03T09:02:35.722Z,9.747376
2022-08-03T09:03:35.728Z,9.747200
2022-08-03T09:04:35.718Z,9.747315
2022-08-03T09:05:55.081Z,9.747418
2022-08-03T09:06:37.696Z,9.747407
2022-08-03T09:07:35.705Z,9.747460
2022-08-03T09:08:35.678Z,9.747313
2022-08-03T09:10:12.161Z,9.747591
2022-08-03T09:10:36.684Z,9.747453
2022-08-03T09:11:53.380Z,9.747357
2022-08-03T09:12:41.582Z,9.747379
2022-08-03T09:13:37.635Z,9.747388
2022-08-03T09:14:45.427Z,9.747339
2022-08-03T09:15:38.361Z,9.747250
2022-08-03T09:16:35.611Z,9.747306
2022-08-03T09:17:35.611Z,9.747375
2022-08-03T09:18:35.609Z,9.747360
2022-08-03T09:19:35.664Z,9.747472
2022-08-03T09:20:35.633Z,9.747417
2022-08-03T09:21:35.585Z,9.747411
2022-08-03T09:22:35.612Z,9.747359
2022-08-03T09:23:59.438Z,9.747216
2022-08-03T09:24:41.431Z,9.747093
2022-08-03T09:25:37.566Z,9.747000
2022-08-03T09:26:35.557Z,9.747178
2022-08-03T09:27:35.539Z,9.747228
2022-08-03T09:29:00.712Z,9.747190
2022-08-03T09:29:36.523Z,9.747116
2022-08-03T09:30:35.747Z,9.747253
2022-08-03T09:31:35.509Z,9.747416
2022-08-03T09:32:35.500Z,9.747417
2022-08-03T09:33:35.927Z,9.747388
2022-08-03T09:34:35.485Z,9.747403
2022-08-03T09:36:37.473Z,9.747284
2022-08-03T09:38:13.656Z,9.747336
2022-08-03T09:38:36.457Z,9.747365
2022-08-03T09:39:41.114Z,9.747293
2022-08-03T09:40:37.467Z,9.747356
2022-08-03T09:41:35.435Z,9.747308
2022-08-03T09:42:35.436Z,9.747316
2022-08-03T09:43:35.444Z,9.747362
2022-08-03T09:44:35.417Z,9.747370
2022-08-03T09:45:35.441Z,9.747303
2022-08-03T09:46:35.399Z,9.747305
2022-08-03T09:47:35.393Z,9.747411
2022-08-03T09:48:35.401Z,9.747448
2022-08-03T09:49:35.428Z,9.747378
2022-08-03T09:50:35.424Z,9.747406
2022-08-03T09:52:33.144Z,9.747395
2022-08-03T09:52:49.483Z,9.747346
2022-08-03T09:53:36.355Z,9.747354
2022-08-03T09:54:35.346Z,9.747359
2022-08-03T09:56:34.514Z,9.747430
2022-08-03T09:56:37.204Z,9.747336
2022-08-03T09:57:36.393Z,9.747374
2022-08-03T09:58:35.344Z,9.747425
2022-08-03T09:59:35.314Z,9.747575
2022-08-03T10:00:35.335Z,9.747455
2022-08-03T10:01:35.386Z,9.747432
2022-08-03T10:02:35.294Z,9.747296
2022-08-03T10:03:35.275Z,9.747115
2022-08-03T10:04:35.275Z,9.747214
2022-08-03T10:05:35.288Z,9.747068
2022-08-03T10:06:35.245Z,9.747257
2022-08-03T10:07:35.240Z,9.747281
2022-08-03T10:08:36.242Z,9.747235
2022-08-03T10:09:35.236Z,9.747152
2022-08-03T10:10:35.256Z,9.747232
2022-08-03T10:11:40.919Z,9.747394
2022-08-03T10:12:37.229Z,9.747396
2022-08-03T10:13:35.195Z,9.747316
2022-08-03T10:14:35.187Z,9.747397
2022-08-03T10:16:21.430Z,9.747336
2022-08-03T10:16:36.187Z,9.747384
2022-08-03T10:17:40.020Z,9.747377
2022-08-03T10:18:37.163Z,9.747344
2022-08-03T10:19:35.166Z,9.747408
2022-08-03T10:20:35.185Z,9.747379
2022-08-03T10:21:35.143Z,9.747379
2022-08-03T10:22:35.132Z,9.747445
2022-08-03T10:23:35.124Z,9.747289
2022-08-03T10:24:35.129Z,9.747380
2022-08-03T10:25:35.160Z,9.747361
2022-08-03T10:26:35.107Z,9.747455
2022-08-03T10:27:35.110Z,9.747246
2022-08-03T10:28:35.092Z,9.747332
2022-08-03T10:29:35.081Z,9.747362
2022-08-03T10:30:35.082Z,9.747477
2022-08-03T10:31:35.124Z,9.747271
2022-08-03T10:32:35.081Z,9.747255
2022-08-03T10:33:50.713Z,9.747291
2022-08-03T10:34:37.094Z,9.747414
2022-08-03T10:35:35.044Z,9.747416
2022-08-03T10:36:35.063Z,9.747367
2022-08-03T10:37:35.022Z,9.747291
2022-08-03T10:38:35.019Z,9.747338
2022-08-03T10:39:35.005Z,9.747335
2022-08-03T10:40:54.665Z,9.747291
2022-08-03T10:41:37.022Z,9.747331
2022-08-03T10:42:34.984Z,9.747361
2022-08-03T10:43:34.976Z,9.747360
2022-08-03T10:44:34.967Z,9.747437
2022-08-03T10:45:34.972Z,9.747394
2022-08-03T10:46:34.980Z,9.747464
2022-08-03T10:47:34.946Z,9.747440
2022-08-03T10:48:34.954Z,9.747464
2022-08-03T10:49:35.719Z,9.747384
2022-08-03T10:50:35.930Z,9.747381
2022-08-03T10:51:34.962Z,9.747303
2022-08-03T10:52:38.253Z,9.747447
2022-08-03T10:53:35.902Z,9.747385
2022-08-03T10:54:34.894Z,9.747355
2022-08-03T10:55:34.896Z,9.747365
2022-08-03T10:56:49.531Z,9.747372
2022-08-03T10:57:35.872Z,9.747392
2022-08-03T10:58:34.866Z,9.747399
2022-08-03T10:59:34.864Z,9.747288
2022-08-03T11:00:34.882Z,9.747400
2022-08-03T11:01:59.102Z,9.747443
2022-08-03T11:02:35.844Z,9.747415
2022-08-03T11:03:34.826Z,9.747446
2022-08-03T11:04:34.816Z,9.747480
2022-08-03T11:05:34.814Z,9.747410
2022-08-03T11:06:37.487Z,9.747475
2022-08-03T11:07:34.797Z,9.747484
2022-08-03T11:08:34.828Z,9.747439
2022-08-03T11:09:34.777Z,9.747433
2022-08-03T11:10:34.804Z,9.747452
2022-08-03T11:11:34.771Z,9.747499
2022-08-03T11:12:34.759Z,9.747424
2022-08-03T11:13:34.751Z,9.747396
2022-08-03T11:14:34.751Z,9.747448
2022-08-03T11:15:34.766Z,9.747412
2022-08-03T11:16:34.725Z,9.747428
2022-08-03T11:17:46.472Z,9.747394
2022-08-03T11:18:35.710Z,9.747282
2022-08-03T11:19:34.702Z,9.747500
2022-08-03T11:20:35.741Z,9.747449
2022-08-03T11:21:34.694Z,9.747482
2022-08-03T11:22:34.685Z,9.747417
2022-08-03T11:24:02.432Z,9.747444
2022-08-03T11:24:35.680Z,9.747429
2022-08-03T11:25:54.868Z,9.747476
2022-08-03T11:26:35.675Z,9.747488
2022-08-03T11:27:34.648Z,9.747526
2022-08-03T11:28:34.638Z,9.747398
2022-08-03T11:29:34.638Z,9.747476
2022-08-03T11:30:34.641Z,9.747539
2022-08-03T11:31:51.512Z,9.747511
2022-08-03T11:32:36.653Z,9.747497
2022-08-03T11:33:34.665Z,9.747537
2022-08-03T11:34:34.600Z,9.747572
2022-08-03T11:35:34.591Z,9.747518
2022-08-03T11:36:34.604Z,9.747521
2022-08-03T11:37:34.554Z,9.747418
2022-08-03T11:38:35.568Z,9.747736
2022-08-03T11:39:34.560Z,9.747745
2022-08-03T11:40:34.549Z,9.747622
2022-08-03T11:41:45.136Z,9.747527
2022-08-03T11:42:35.540Z,9.747507
2022-08-03T11:43:34.534Z,9.747759
2022-08-03T11:44:34.532Z,9.747880
2022-08-03T11:45:34.517Z,9.747741
2022-08-03T11:46:34.554Z,9.747734
2022-08-03T11:47:34.500Z,9.747697
2022-08-03T11:48:34.496Z,9.747723
2022-08-03T11:49:34.528Z,9.747694
2022-08-03T11:50:34.498Z,9.747459
2022-08-03T11:51:34.503Z,9.747562
2022-08-03T11:52:34.467Z,9.747544
2022-08-03T11:53:42.127Z,9.747516
2022-08-03T11:54:35.461Z,9.747122